Time;durP1;ratioP1;P1;durP2;ratioP2;P2;SDS_P1;SDS_P2;PMS_P1;PMS_P2;Temp;Humidity;BMP_temperature;BMP_pressure;BME280_temperature;BME280_humidity;BME280_pressure;Samples;Min_cycle;Max_cycle;Signal;HPM_P1;HPM_P2
2023/07/04 00:01:04;;;;;;;3.07;1.50;;;;;;;14.27;79.95;101022.34;5113082;28;20421;-82
2023/07/04 00:03:31;;;;;;;2.55;1.63;;;;;;;14.29;80.02;101019.69;5113062;28;20107;-81
2023/07/04 00:05:57;;;;;;;2.83;1.80;;;;;;;14.26;80.50;101025.84;5114058;28;20069;-82
2023/07/04 00:08:25;;;;;;;3.40;1.85;;;;;;;14.26;79.35;101018.03;5114034;28;20405;-81
2023/07/04 00:10:50;;;;;;;2.17;1.50;;;;;;;14.27;78.72;101018.84;5113474;28;20023;-82
2023/07/04 00:13:19;;;;;;;3.50;1.70;;;;;;;14.22;78.79;101019.00;5113290;28;20115;-81
2023/07/04 00:15:46;;;;;;;3.10;1.60;;;;;;;14.23;78.66;101023.31;5114199;28;20024;-81
2023/07/04 00:18:11;;;;;;;1.48;1.38;;;;;;;14.20;78.34;101019.03;5113159;28;20051;-81
2023/07/04 00:20:37;;;;;;;1.97;1.40;;;;;;;14.20;78.59;101011.22;5113825;28;20071;-82
2023/07/04 00:23:03;;;;;;;2.00;1.40;;;;;;;14.18;78.08;101006.94;5113765;28;20024;-81
2023/07/04 00:25:28;;;;;;;2.30;1.60;;;;;;;14.23;78.08;101012.88;5112920;28;20340;-81
2023/07/04 00:27:53;;;;;;;2.43;1.57;;;;;;;14.23;77.83;101015.47;5113503;28;20163;-81
2023/07/04 00:30:20;;;;;;;2.23;1.60;;;;;;;14.23;77.48;101020.69;5113310;28;20118;-81
2023/07/04 00:32:45;;;;;;;2.92;1.40;;;;;;;14.20;78.73;101018.16;5112758;28;20043;-81
2023/07/04 00:35:11;;;;;;;1.57;1.40;;;;;;;14.18;78.19;101012.16;5113191;28;20053;-81
2023/07/04 00:37:36;;;;;;;1.17;1.07;;;;;;;14.20;78.17;101016.44;5112956;28;20016;-81
2023/07/04 00:40:09;;;;;;;2.97;1.80;;;;;;;14.08;79.11;101008.06;5113476;28;20104;-82
2023/07/04 00:42:36;;;;;;;4.22;1.75;;;;;;;14.11;80.18;101016.69;5113679;28;20024;-81
2023/07/04 00:45:09;;;;;;;3.55;1.58;;;;;;;14.03;79.00;101006.47;5112875;28;20080;-81
2023/07/04 00:47:52;;;;;;;3.33;1.70;;;;;;;14.01;81.25;101004.78;5113310;28;20020;-81
2023/07/04 00:50:19;;;;;;;3.92;1.70;;;;;;;14.00;81.14;101009.13;5113034;28;20518;-81
2023/07/04 00:52:45;;;;;;;2.05;1.70;;;;;;;14.01;82.17;101000.41;5112678;28;20019;-82
2023/07/04 00:55:11;;;;;;;4.68;2.00;;;;;;;13.98;82.02;101005.72;5113134;28;20036;-82
2023/07/04 00:57:38;;;;;;;6.00;2.00;;;;;;;13.96;80.54;101004.03;5113309;28;20024;-82
2023/07/04 01:00:21;;;;;;;7.80;2.10;;;;;;;14.00;81.56;101013.50;5112540;28;20482;-82
2023/07/04 01:02:49;;;;;;;4.82;2.10;;;;;;;13.99;80.91;101006.59;5113124;28;20460;-82
2023/07/04 01:05:23;;;;;;;3.72;1.95;;;;;;;14.02;81.58;101012.56;5112707;28;20468;-82
2023/07/04 01:07:54;;;;;;;7.43;2.42;;;;;;;14.01;82.66;101016.06;5112536;28;20088;-82
2023/07/04 01:10:28;;;;;;;5.15;2.20;;;;;;;14.03;81.20;101022.13;5112822;28;20110;-82
2023/07/04 01:12:56;;;;;;;5.95;2.30;;;;;;;14.03;81.00;101006.47;5112355;28;20027;-82
2023/07/04 01:15:23;;;;;;;3.35;1.90;;;;;;;14.05;80.62;101012.50;5112830;28;20024;-82
2023/07/04 01:17:51;;;;;;;10.50;3.13;;;;;;;14.06;83.25;101015.94;5112888;28;20054;-82
2023/07/04 01:20:24;;;;;;;4.35;2.20;;;;;;;14.06;82.45;101018.56;5111928;28;20107;-83
2023/07/04 01:23:16;;;;;;;7.82;2.70;;;;;;;14.04;82.60;101016.00;5113164;28;20124;-82
2023/07/04 01:25:51;;;;;;;4.82;2.53;;;;;;;14.02;81.45;101012.56;5112702;28;20023;-82
2023/07/04 01:28:19;;;;;;;6.80;2.70;;;;;;;14.03;84.51;101021.25;5111886;28;20020;-82
2023/07/04 01:30:46;;;;;;;7.55;2.50;;;;;;;14.01;84.23;101016.06;5112612;28;20047;-83
2023/07/04 01:33:13;;;;;;;4.15;2.10;;;;;;;14.00;83.27;101022.19;5112831;28;20028;-82
2023/07/04 01:35:39;;;;;;;6.15;2.30;;;;;;;13.99;83.24;101030.91;5112159;28;20106;-82
2023/07/04 01:38:06;;;;;;;3.28;2.05;;;;;;;14.00;82.40;101018.75;5112960;28;20103;-82
2023/07/04 01:40:34;;;;;;;5.05;2.15;;;;;;;13.96;84.28;101023.16;5112879;28;20016;-82
2023/07/04 01:43:01;;;;;;;5.90;2.17;;;;;;;13.96;83.98;101033.59;5111793;28;20024;-82
2023/07/04 01:45:27;;;;;;;6.13;2.60;;;;;;;13.95;83.70;101012.78;5112763;28;20028;-82
2023/07/04 01:47:53;;;;;;;5.23;2.40;;;;;;;13.94;82.56;101019.75;5111955;28;20024;-82
2023/07/04 01:50:19;;;;;;;6.15;2.30;;;;;;;13.95;83.80;101021.47;5112316;28;20028;-82
2023/07/04 01:52:45;;;;;;;3.25;2.20;;;;;;;13.96;84.99;101027.53;5112498;28;20023;-82
2023/07/04 01:55:11;;;;;;;6.97;2.57;;;;;;;13.96;83.86;101017.94;5111671;28;20534;-82
2023/07/04 01:57:37;;;;;;;;;;;;;;;14.02;84.42;101025.63;5112494;28;20023;-82
2023/07/04 02:00:05;;;;;;;5.80;2.77;;;;;;;14.00;83.14;101019.56;5112841;28;20355;-82
2023/07/04 02:02:31;;;;;;;6.35;2.33;;;;;;;13.95;84.85;101011.03;5111605;28;20027;-82
2023/07/04 02:04:56;;;;;;;3.20;2.00;;;;;;;14.09;83.20;101034.13;5112663;28;20020;-81
2023/07/04 02:07:21;;;;;;;10.13;3.17;;;;;;;14.12;82.72;101028.84;5112352;28;20023;-82
2023/07/04 02:09:47;;;;;;;5.77;2.43;;;;;;;14.14;83.23;101021.81;5111785;28;20032;-82
2023/07/04 02:12:12;;;;;;;3.47;2.03;;;;;;;14.19;82.66;101024.28;5111818;28;20818;-82
2023/07/04 02:14:38;;;;;;;2.73;2.00;;;;;;;14.21;82.37;101019.88;5112576;28;20030;-82
2023/07/04 02:17:03;;;;;;;1.97;1.83;;;;;;;14.27;83.07;101014.50;5111715;28;20027;-82
2023/07/04 02:19:29;;;;;;;3.67;1.90;;;;;;;14.30;82.00;101005.72;5112015;28;20393;-82
2023/07/04 02:21:54;;;;;;;2.07;1.60;;;;;;;14.32;81.37;101010.00;5112482;28;20032;-82
2023/07/04 02:24:19;;;;;;;1.77;1.50;;;;;;;14.38;81.01;101021.19;5114227;28;20015;-82
2023/07/04 02:26:46;;;;;;;1.57;1.30;;;;;;;14.39;80.67;101015.91;5116057;28;20031;-82
2023/07/04 02:29:11;;;;;;;1.52;1.40;;;;;;;14.47;81.27;101034.81;5115829;28;20039;-82
2023/07/04 02:31:36;;;;;;;1.33;1.10;;;;;;;14.49;81.20;101025.19;5115414;28;20447;-82
2023/07/04 02:34:02;;;;;;;1.87;1.60;;;;;;;14.45;81.82;101020.97;5115951;28;20462;-82
2023/07/04 02:36:27;;;;;;;2.20;1.37;;;;;;;14.50;81.44;101031.28;5115692;28;20543;-82
2023/07/04 02:38:57;;;;;;;1.73;1.33;;;;;;;14.51;81.95;101035.59;5115184;28;20047;-85
2023/07/04 02:41:22;;;;;;;1.23;1.00;;;;;;;14.47;82.18;101034.81;5116130;28;20110;-89
2023/07/04 02:43:48;;;;;;;1.77;1.20;;;;;;;14.46;83.55;101037.47;5117377;28;20110;-88
2023/07/04 02:46:13;;;;;;;2.00;1.30;;;;;;;14.32;83.39;101014.38;5115665;28;20486;-90
2023/07/04 02:48:40;;;;;;;2.83;1.30;;;;;;;14.37;84.75;101022.91;5117280;28;20047;-88
2023/07/04 02:51:06;;;;;;;;;;;;;;;14.36;83.80;101024.69;5098049;28;20036;-89
2023/07/04 02:53:31;;;;;;;2.95;1.10;;;;;;;14.32;84.25;101017.00;5116622;28;19968;-88
2023/07/04 02:55:58;;;;;;;2.43;1.73;;;;;;;14.27;86.05;101016.25;5116708;28;20027;-89
2023/07/04 02:58:24;;;;;;;2.42;1.63;;;;;;;14.26;84.21;101018.03;5116027;28;20012;-88
2023/07/04 03:00:50;;;;;;;3.92;1.80;;;;;;;14.17;87.72;101006.06;5116428;28;20030;-89
2023/07/04 03:03:17;;;;;;;2.40;1.67;;;;;;;14.13;85.65;101014.03;5116785;28;20024;-90
2023/07/04 03:05:44;;;;;;;2.10;1.48;;;;;;;14.13;85.40;101014.03;5115993;28;20042;-89
2023/07/04 03:08:09;;;;;;;3.08;1.95;;;;;;;14.06;87.82;101008.13;5116270;28;20049;-89
2023/07/04 03:10:35;;;;;;;2.90;1.87;;;;;;;14.08;88.06;101019.38;5116258;28;20527;-88
2023/07/04 03:13:00;;;;;;;2.67;1.67;;;;;;;14.08;85.88;101018.50;5115860;28;20028;-88
2023/07/04 03:15:26;;;;;;;2.87;1.70;;;;;;;14.08;85.55;101021.09;5116046;28;20063;-88
2023/07/04 03:17:52;;;;;;;2.72;1.40;;;;;;;14.07;87.05;101012.44;5116149;28;20023;-86
2023/07/04 03:20:17;;;;;;;3.13;1.80;;;;;;;14.05;87.11;101017.72;5117392;28;20031;-88
2023/07/04 03:22:43;;;;;;;2.77;1.77;;;;;;;13.98;89.95;101018.75;5124878;28;20024;-87
2023/07/04 03:25:11;;;;;;;7.05;2.58;;;;;;;13.90;90.86;101012.91;5115793;28;20019;-88
2023/07/04 03:27:38;;;;;;;7.80;2.70;;;;;;;13.86;90.70;101012.13;5115182;28;20024;-89
2023/07/04 03:30:06;;;;;;;5.35;2.50;;;;;;;13.84;88.77;101021.75;5115812;28;20048;-88
2023/07/04 03:32:31;;;;;;;4.85;2.33;;;;;;;13.81;87.52;101020.97;5115563;28;20030;-87
2023/07/04 03:35:01;;;;;;;5.10;2.40;;;;;;;13.78;87.39;101015.81;5114346;28;20390;-87
2023/07/04 03:37:35;;;;;;;5.15;2.30;;;;;;;13.71;87.15;101020.34;5115225;28;20114;-88
2023/07/04 03:40:06;;;;;;;2.00;1.90;;;;;;;13.67;86.18;101031.75;5115540;28;20156;-88
2023/07/04 03:42:35;;;;;;;2.38;1.70;;;;;;;13.62;86.49;101031.00;5115090;28;20015;-88
2023/07/04 03:45:15;;;;;;;3.42;1.75;;;;;;;13.48;86.15;101011.34;5119355;28;20079;-87
2023/07/04 03:47:50;;;;;;;2.10;1.60;;;;;;;13.53;86.46;101019.91;5113774;28;20122;-88
2023/07/04 03:50:42;;;;;;;3.72;1.85;;;;;;;13.47;87.65;101014.84;5114973;28;20027;-88
2023/07/04 03:53:08;;;;;;;2.60;1.67;;;;;;;13.53;86.93;101034.69;5096433;28;20411;-88
2023/07/04 03:55:33;;;;;;;2.13;1.70;;;;;;;13.55;88.12;101035.50;5114550;28;20020;-87
2023/07/04 03:57:59;;;;;;;3.43;1.70;;;;;;;13.51;86.78;101031.28;5115041;28;20463;-88
2023/07/04 04:00:24;;;;;;;1.60;1.50;;;;;;;13.50;86.65;101033.03;5114816;28;20035;-87
2023/07/04 04:02:49;;;;;;;2.00;1.50;;;;;;;13.54;86.28;101033.78;5114169;28;20023;-86
2023/07/04 04:05:15;;;;;;;2.70;1.80;;;;;;;13.55;88.10;101025.97;5114525;28;20051;-87
2023/07/04 04:07:40;;;;;;;2.57;1.70;;;;;;;13.57;86.09;101033.72;5114624;28;20023;-87
2023/07/04 04:10:12;;;;;;;1.67;1.57;;;;;;;13.51;86.01;101026.91;5114059;28;20403;-87
2023/07/04 04:12:37;;;;;;;2.28;1.70;;;;;;;13.61;86.76;101039.72;5114401;28;20050;-87
2023/07/04 04:15:03;;;;;;;2.40;1.60;;;;;;;13.64;88.98;101037.88;5114785;28;20114;-87
2023/07/04 04:17:28;;;;;;;1.92;1.50;;;;;;;13.64;87.74;101043.09;5113623;28;20111;-87
2023/07/04 04:19:54;;;;;;;4.60;2.13;;;;;;;13.58;89.67;101032.84;5114701;28;20099;-87
2023/07/04 04:22:19;;;;;;;3.80;1.80;;;;;;;13.68;89.62;101044.75;5129842;28;20432;-88
2023/07/04 04:24:46;;;;;;;8.63;2.40;;;;;;;13.70;90.26;101040.38;5115675;28;20028;-87
2023/07/04 04:27:26;;;;;;;5.85;2.10;;;;;;;13.62;89.66;101024.06;5114594;28;20100;-86
2023/07/04 04:30:09;;;;;;;5.90;2.38;;;;;;;13.68;90.46;101025.66;5112647;28;20048;-86
2023/07/04 04:32:35;;;;;;;6.72;2.33;;;;;;;13.81;90.52;101044.44;5114158;28;20115;-86
2023/07/04 04:35:02;;;;;;;7.15;2.45;;;;;;;13.89;91.58;101050.31;5113440;28;20106;-87
2023/07/04 04:37:27;;;;;;;2.75;1.92;;;;;;;13.97;91.39;101055.34;5113398;28;20051;-86
2023/07/04 04:39:53;;;;;;;2.40;1.77;;;;;;;14.04;90.76;101057.75;5113672;28;20506;-86
2023/07/04 04:42:23;;;;;;;2.90;1.80;;;;;;;14.10;90.40;101056.72;5113631;28;20077;-84
2023/07/04 04:44:53;;;;;;;4.15;2.13;;;;;;;14.15;90.65;101061.81;5112423;28;20023;-86
2023/07/04 04:47:22;;;;;;;6.70;2.47;;;;;;;14.14;91.33;101058.34;5112640;28;20027;-86
2023/07/04 04:49:47;;;;;;;4.47;2.30;;;;;;;14.16;90.11;101063.53;5113430;28;20479;-85
2023/07/04 04:52:12;;;;;;;5.43;2.30;;;;;;;14.19;90.54;101063.44;5112982;28;20034;-86
2023/07/04 04:54:39;;;;;;;7.00;2.70;;;;;;;14.18;90.49;101064.38;5117162;28;20374;-86
2023/07/04 04:57:06;;;;;;;9.85;2.92;;;;;;;14.20;91.89;101072.97;5114300;28;20102;-87
2023/07/04 04:59:31;;;;;;;7.13;2.75;;;;;;;14.19;90.27;101066.06;5111930;28;20099;-86
2023/07/04 05:02:01;;;;;;;6.80;2.73;;;;;;;14.15;91.87;101044.41;5113367;28;20539;-86
2023/07/04 05:07:12;;;;;;;9.98;2.88;;;;;;;14.43;91.81;101068.88;5118579;22;20096;-86
2023/07/04 05:09:38;;;;;;;7.22;2.75;;;;;;;14.48;90.52;101077.47;5113664;28;20099;-87
2023/07/04 05:12:04;;;;;;;6.33;2.63;;;;;;;14.54;90.49;101071.22;5092148;28;20101;-85
2023/07/04 05:14:36;;;;;;;6.00;2.80;;;;;;;14.54;89.40;101073.81;5113276;28;20296;-87
2023/07/04 05:17:01;;;;;;;9.30;3.00;;;;;;;14.55;90.95;101060.72;5113655;28;20019;-86
2023/07/04 05:22:08;;;;;;;12.20;3.33;;;;;;;14.55;90.45;101070.31;5031354;28;20045;-88
2023/07/04 05:24:39;;;;;;;9.48;3.20;;;;;;;14.62;90.47;101083.16;5032816;28;20095;-86
2023/07/04 05:27:10;;;;;;;8.77;3.20;;;;;;;14.53;90.44;101062.50;5032871;28;20037;-86
2023/07/04 05:29:36;;;;;;;8.38;2.63;;;;;;;14.74;89.68;101081.97;5014936;28;20022;-87
2023/07/04 05:34:56;;;;;;;9.05;2.83;;;;;;;14.83;89.81;101080.88;5091798;28;20425;-86
2023/07/04 05:37:34;;;;;;;8.15;3.05;;;;;;;14.95;90.02;101093.56;5023728;28;20040;-86
2023/07/04 05:40:00;;;;;;;8.32;3.08;;;;;;;15.03;89.52;101095.09;5090500;28;20085;-86
2023/07/04 05:42:47;;;;;;;10.43;3.37;;;;;;;15.09;89.26;101098.38;5092778;28;20419;-88
2023/07/04 05:45:14;;;;;;;8.57;3.00;;;;;;;15.11;89.18;101093.09;5092503;28;20040;-86
2023/07/04 05:47:39;;;;;;;8.23;2.72;;;;;;;15.19;89.24;101082.41;5092167;28;20016;-86
2023/07/04 05:50:06;;;;;;;7.37;2.60;;;;;;;15.34;88.60;101094.13;5092885;28;20344;-86
2023/07/04 05:52:31;;;;;;;6.50;2.75;;;;;;;15.34;87.90;101078.44;5093125;28;20096;-86
2023/07/04 05:58:24;;;;;;;9.43;3.03;;;;;;;15.52;87.67;101083.13;5057543;28;20511;-86
2023/07/04 06:00:49;;;;;;;11.10;3.08;;;;;;;15.70;86.57;101099.09;5079421;28;20029;-89
2023/07/04 06:03:35;;;;;;;6.60;2.60;;;;;;;15.79;86.35;101085.72;5077345;28;20028;-89
2023/07/04 06:06:05;;;;;;;10.18;2.95;;;;;;;15.85;85.11;101089.94;5076903;28;20127;-87
2023/07/04 06:08:33;;;;;;;10.02;2.80;;;;;;;15.80;85.24;101073.50;5077491;28;20534;-91
2023/07/04 06:11:04;;;;;;;10.63;3.10;;;;;;;16.20;84.43;101080.00;5076324;28;20036;-85
2023/07/04 06:13:42;;;;;;;6.25;2.55;;;;;;;17.07;84.29;101100.47;5076072;28;20032;-83
2023/07/04 06:16:08;;;;;;;9.77;2.83;;;;;;;18.16;81.41;101084.69;5075115;28;20029;-85
2023/07/04 06:18:44;;;;;;;6.80;2.60;;;;;;;19.60;77.74;101107.03;5076142;28;20023;-87
2023/07/04 06:21:14;;;;;;;9.32;2.50;;;;;;;20.48;72.31;101114.09;5075684;28;20116;-85
2023/07/04 06:23:43;;;;;;;9.10;2.60;;;;;;;20.57;70.78;101112.75;5075162;28;20029;-86
2023/07/04 06:26:09;;;;;;;9.18;2.67;;;;;;;20.25;70.74;101110.03;5088952;28;20062;-86
2023/07/04 06:28:35;;;;;;;;;;;;;;;20.03;67.88;101113.78;5096508;28;20031;-86
2023/07/04 06:31:06;;;;;;;7.43;2.50;;;;;;;19.91;69.38;101112.59;5095245;28;20380;-85
2023/07/04 06:33:33;;;;;;;6.97;2.25;;;;;;;19.92;69.48;101118.75;5095840;28;20080;-85
2023/07/04 06:36:00;;;;;;;5.75;2.50;;;;;;;19.95;69.95;101123.81;5077623;28;20069;-85
2023/07/04 06:38:29;;;;;;;5.80;2.60;;;;;;;19.73;68.49;101124.88;5087747;28;20040;-85
2023/07/04 06:40:59;;;;;;;6.25;2.50;;;;;;;19.40;70.19;101117.69;5095564;28;20031;-87
2023/07/04 06:43:26;;;;;;;6.18;2.50;;;;;;;19.37;70.16;101134.50;5094120;28;20142;-89
2023/07/04 06:45:52;;;;;;;5.50;2.00;;;;;;;19.35;70.34;101138.13;5096751;28;20081;-88
2023/07/04 06:48:20;;;;;;;3.03;1.88;;;;;;;19.36;70.25;101135.41;5096072;28;20028;-87
2023/07/04 06:50:55;;;;;;;4.18;2.00;;;;;;;19.23;70.85;101135.16;5094405;28;20028;-85
2023/07/04 06:53:20;;;;;;;3.72;2.00;;;;;;;19.01;71.29;101137.91;5075271;28;20025;-85
2023/07/04 06:55:45;;;;;;;4.80;1.80;;;;;;;19.04;67.80;101129.91;5075420;28;20032;-85
2023/07/04 06:58:20;;;;;;;5.27;2.43;;;;;;;19.25;69.98;101146.44;5074169;28;20020;-84
2023/07/04 07:00:55;;;;;;;9.68;2.88;;;;;;;19.20;67.45;101148.44;5075480;28;20066;-85
2023/07/04 07:03:29;;;;;;;7.47;2.95;;;;;;;19.07;67.16;101139.41;5074624;28;20103;-84
2023/07/04 07:06:12;;;;;;;6.47;2.65;;;;;;;19.16;69.60;101156.56;5074261;28;20016;-84
2023/07/04 07:08:38;;;;;;;4.82;2.22;;;;;;;19.18;68.47;101157.34;5075377;28;20036;-85
2023/07/04 07:11:20;;;;;;;5.13;2.40;;;;;;;19.18;69.50;101141.56;5073679;28;20052;-84
2023/07/04 07:13:57;;;;;;;3.53;1.90;;;;;;;19.27;70.35;101136.69;5074257;28;20130;-85
2023/07/04 07:16:28;;;;;;;4.53;2.40;;;;;;;19.39;67.41;101143.16;5074150;28;20526;-84
2023/07/04 07:18:54;;;;;;;5.38;2.22;;;;;;;19.40;67.40;101158.03;5074082;28;20021;-85
2023/07/04 07:21:23;;;;;;;3.42;2.15;;;;;;;19.22;65.70;101135.22;5093298;28;20024;-84
2023/07/04 07:23:50;;;;;;;5.03;2.20;;;;;;;19.11;68.91;101141.00;5094847;28;20460;-85
2023/07/04 07:26:19;;;;;;;3.42;1.90;;;;;;;19.21;68.32;101144.88;5093329;28;20078;-85
2023/07/04 07:28:45;;;;;;;3.20;1.60;;;;;;;19.41;67.86;101162.38;5095054;28;20464;-84
2023/07/04 07:31:13;;;;;;;7.60;2.57;;;;;;;19.50;65.46;101174.22;5094569;28;20107;-85
2023/07/04 07:33:40;;;;;;;7.35;2.75;;;;;;;19.50;64.06;101174.22;5093880;28;20447;-84
2023/07/04 07:36:24;;;;;;;5.20;2.30;;;;;;;19.54;65.11;101178.44;5094299;28;20024;-85
2023/07/04 07:39:03;;;;;;;4.82;2.30;;;;;;;19.54;61.51;101148.59;5091302;28;20040;-83
2023/07/04 07:41:31;;;;;;;7.80;2.75;;;;;;;19.72;60.75;101154.75;5093528;28;20436;-84
2023/07/04 07:43:59;;;;;;;4.80;2.63;;;;;;;19.60;60.66;101169.38;5094789;28;20052;-84
2023/07/04 07:46:28;;;;;;;5.45;2.45;;;;;;;19.45;62.49;101160.44;5094675;28;20211;-85
2023/07/04 07:48:53;;;;;;;4.97;2.22;;;;;;;19.40;64.01;101159.81;5092003;28;20081;-84
2023/07/04 07:51:19;;;;;;;2.90;2.03;;;;;;;19.57;64.13;101169.53;5094179;28;20020;-85
2023/07/04 07:53:47;;;;;;;3.53;1.80;;;;;;;19.59;64.62;101178.22;5093168;28;20020;-84
2023/07/04 07:56:14;;;;;;;4.55;1.98;;;;;;;19.68;64.18;101185.66;5094312;28;20031;-84
2023/07/04 07:58:40;;;;;;;2.72;1.60;;;;;;;19.75;63.44;101183.59;5095016;28;20072;-85
2023/07/04 08:01:20;;;;;;;2.17;1.53;;;;;;;19.84;63.76;101172.59;5093039;28;20024;-84
2023/07/04 08:03:45;;;;;;;4.05;1.83;;;;;;;19.89;63.04;101173.28;5093991;28;20036;-85
2023/07/04 08:06:29;;;;;;;2.67;1.73;;;;;;;20.10;62.93;101188.09;5092956;28;20016;-84
2023/07/04 08:08:57;;;;;;;6.28;2.30;;;;;;;20.09;60.95;101184.59;5090673;28;20049;-85
2023/07/04 08:11:23;;;;;;;7.45;2.53;;;;;;;20.01;58.22;101187.59;5093451;28;20020;-85
2023/07/04 08:13:49;;;;;;;5.90;2.30;;;;;;;19.90;59.46;101192.53;5081576;28;20024;-85
2023/07/04 08:16:52;;;;;;;6.07;2.33;;;;;;;19.69;57.15;101189.16;5084867;28;20392;-85
2023/07/04 08:19:21;;;;;;;5.93;2.50;;;;;;;19.77;58.71;101187.00;4991669;28;20125;-83
2023/07/04 08:21:46;;;;;;;4.60;2.20;;;;;;;19.89;59.85;101172.41;5057294;28;20120;-83
2023/07/04 08:24:13;;;;;;;5.57;2.43;;;;;;;20.11;58.39;101180.09;5075284;28;20119;-83
2023/07/04 08:26:40;;;;;;;4.68;2.15;;;;;;;20.40;58.74;101176.91;5092591;28;20074;-84
2023/07/04 08:29:07;;;;;;;2.85;1.80;;;;;;;20.73;59.74;101182.19;5091837;28;20089;-84
2023/07/04 08:31:33;;;;;;;5.90;2.63;;;;;;;21.01;56.99;101180.75;5093007;28;20020;-83
2023/07/04 08:33:58;;;;;;;3.25;1.65;;;;;;;21.12;57.72;101167.84;5092644;28;20032;-84
2023/07/04 08:36:24;;;;;;;3.38;2.05;;;;;;;21.35;55.41;101175.41;5091046;28;20028;-83
2023/07/04 08:38:50;;;;;;;3.63;1.80;;;;;;;21.51;55.41;101178.03;5092623;28;20028;-84
2023/07/04 08:41:45;;;;;;;3.90;1.85;;;;;;;21.54;52.52;101168.19;5091137;28;20033;-85
2023/07/04 08:44:23;;;;;;;6.80;2.40;;;;;;;21.27;54.05;101168.78;5089985;28;20073;-85
2023/07/04 08:46:53;;;;;;;5.70;2.15;;;;;;;21.12;52.11;101164.34;5090264;28;20393;-84
2023/07/04 08:49:29;;;;;;;5.40;2.00;;;;;;;21.19;54.10;101163.09;5092407;28;20419;-85
2023/07/04 08:52:02;;;;;;;2.53;1.60;;;;;;;21.34;52.82;101177.22;5090210;28;20024;-85
2023/07/04 08:54:28;;;;;;;6.57;2.08;;;;;;;21.36;51.51;101174.47;5092249;28;20940;-84
2023/07/04 08:56:58;;;;;;;3.10;1.87;;;;;;;21.42;51.11;101185.56;5091246;28;20085;-85
2023/07/04 08:59:41;;;;;;;2.20;1.30;;;;;;;21.36;47.68;101188.53;5091902;28;20020;-82
2023/07/04 09:02:23;;;;;;;5.30;2.00;;;;;;;21.40;47.62;101179.50;5091959;28;20450;-83
2023/07/04 09:05:13;;;;;;;4.03;1.80;;;;;;;21.49;49.72;101180.78;5092178;28;20353;-83
2023/07/04 09:07:57;;;;;;;2.55;1.65;;;;;;;21.75;51.50;101196.97;5094092;28;20024;-84
2023/07/04 09:10:36;;;;;;;2.75;1.40;;;;;;;22.06;48.71;101189.91;5078660;28;20024;-82
2023/07/04 09:13:06;;;;;;;8.13;1.95;;;;;;;22.08;47.19;101197.75;5071616;28;20024;-83
2023/07/04 09:15:36;;;;;;;9.70;2.20;;;;;;;21.96;48.21;101194.88;5072388;28;20033;-83
2023/07/04 09:18:36;;;;;;;5.28;2.10;;;;;;;22.02;48.86;101204.25;5071819;28;20119;-83
2023/07/04 09:21:16;;;;;;;7.18;2.05;;;;;;;21.89;47.27;101196.19;5072665;28;20023;-81
2023/07/04 09:23:44;;;;;;;3.60;1.73;;;;;;;21.91;48.90;101204.88;5072369;28;20025;-82
2023/07/04 09:26:12;;;;;;;4.30;1.90;;;;;;;22.10;49.86;101209.97;5071866;28;20048;-84
2023/07/04 09:28:42;;;;;;;2.72;1.35;;;;;;;22.29;49.19;101208.88;5072357;28;20516;-84
2023/07/04 09:31:22;;;;;;;4.15;1.65;;;;;;;22.35;46.27;101217.28;5071974;28;20027;-82
2023/07/04 09:33:49;;;;;;;2.45;1.50;;;;;;;22.39;45.67;101217.94;5075139;28;20040;-83
2023/07/04 09:36:17;;;;;;;3.33;1.60;;;;;;;22.45;47.53;101222.06;5076449;28;20025;-84
2023/07/04 09:38:54;;;;;;;2.80;1.67;;;;;;;22.39;45.71;101220.59;5076387;28;20029;-83
2023/07/04 09:41:26;;;;;;;2.55;1.45;;;;;;;22.38;46.62;101221.53;5075252;28;20036;-83
2023/07/04 09:43:54;;;;;;;3.97;1.90;;;;;;;22.39;44.95;101211.84;5076664;28;20024;-83
2023/07/04 09:46:28;;;;;;;4.35;2.00;;;;;;;22.56;47.14;101232.84;5075353;28;20362;-81
2023/07/04 09:49:15;;;;;;;5.40;1.80;;;;;;;22.63;47.47;101218.31;5076372;28;20103;-83
2023/07/04 09:51:40;;;;;;;2.78;1.80;;;;;;;22.74;47.65;101209.72;5076170;28;20491;-83
2023/07/04 09:54:34;;;;;;;2.45;1.77;;;;;;;22.73;45.94;101191.31;5075430;28;20020;-82
2023/07/04 09:57:39;;;;;;;3.10;1.90;;;;;;;22.95;46.70;101218.16;5076748;28;20033;-83
2023/07/04 10:00:33;;;;;;;5.93;2.38;;;;;;;23.07;44.26;101221.81;5075583;28;20469;-80
2023/07/04 10:03:07;;;;;;;3.40;2.10;;;;;;;22.99;46.31;101219.66;5058633;28;20029;-82
2023/07/04 10:05:35;;;;;;;5.75;2.20;;;;;;;23.08;45.04;101217.41;5077196;28;20388;-83
2023/07/04 10:08:06;;;;;;;4.57;2.40;;;;;;;23.07;44.47;101218.34;5075272;28;20115;-83
2023/07/04 10:10:36;;;;;;;5.15;2.38;;;;;;;23.07;44.34;101216.53;5075949;28;20032;-83
2023/07/04 10:13:04;;;;;;;6.82;2.60;;;;;;;23.07;43.29;101219.16;5075867;28;20035;-83
2023/07/04 10:15:39;;;;;;;4.63;2.30;;;;;;;23.13;42.89;101212.66;5074877;28;20054;-82
2023/07/04 10:18:04;;;;;;;3.15;1.90;;;;;;;23.20;41.57;101210.50;5075879;28;20032;-83
2023/07/04 10:20:40;;;;;;;3.33;2.00;;;;;;;23.23;41.08;101215.59;5076923;28;20025;-82
2023/07/04 10:23:06;;;;;;;4.90;1.90;;;;;;;23.16;40.82;101214.25;5074752;28;20052;-82
2023/07/04 10:25:34;;;;;;;2.75;1.70;;;;;;;23.14;41.04;101224.94;5075426;28;20114;-81
2023/07/04 10:28:12;;;;;;;3.10;1.80;;;;;;;23.11;43.59;101218.03;5075413;28;20028;-82
2023/07/04 10:30:40;;;;;;;4.45;2.10;;;;;;;23.10;41.15;101208.41;5074963;28;20025;-81
2023/07/04 10:33:15;;;;;;;2.83;1.67;;;;;;;23.01;43.86;101222.22;5074849;28;20511;-83
2023/07/04 10:35:45;;;;;;;3.80;1.80;;;;;;;22.94;43.77;101212.94;5074160;28;20093;-83
2023/07/04 10:38:36;;;;;;;3.35;1.85;;;;;;;23.08;44.48;101209.44;5075332;28;20524;-83
2023/07/04 10:41:16;;;;;;;5.13;1.90;;;;;;;23.09;42.38;101203.19;5075545;28;20036;-82
2023/07/04 10:43:45;;;;;;;2.50;1.70;;;;;;;23.11;42.95;101217.19;5073192;28;20032;-84
2023/07/04 10:46:22;;;;;;;2.45;1.85;;;;;;;23.02;43.78;101223.91;5075288;28;20063;-84
2023/07/04 10:48:54;;;;;;;2.65;1.60;;;;;;;23.01;44.36;101219.56;5074855;28;20021;-85
2023/07/04 10:51:26;;;;;;;4.07;1.85;;;;;;;23.29;41.92;101223.16;5073868;28;20024;-82
2023/07/04 10:53:52;;;;;;;4.10;1.92;;;;;;;23.51;41.66;101220.00;5075226;28;20070;-83
2023/07/04 10:56:22;;;;;;;2.97;1.83;;;;;;;23.53;43.08;101220.72;5074954;28;20025;-83
2023/07/04 10:58:51;;;;;;;2.65;1.50;;;;;;;23.56;42.74;101227.66;5074913;28;20020;-82
2023/07/04 11:01:21;;;;;;;2.13;1.40;;;;;;;23.79;43.45;101225.31;5094640;28;20060;-83
2023/07/04 11:03:59;;;;;;;3.78;1.30;;;;;;;23.92;43.22;101236.81;5076946;28;20028;-84
2023/07/04 11:06:32;;;;;;;2.13;1.40;;;;;;;23.84;41.12;101234.66;5074547;28;20082;-83
2023/07/04 11:08:58;;;;;;;3.08;1.60;;;;;;;23.59;40.53;101232.72;5127497;23;20052;-83
2023/07/04 11:11:32;;;;;;;2.60;1.58;;;;;;;23.33;43.13;101227.31;5073835;28;20016;-85
2023/07/04 11:14:03;;;;;;;2.45;1.70;;;;;;;23.36;42.99;101227.09;5074594;28;20082;-84
2023/07/04 11:16:31;;;;;;;2.67;1.60;;;;;;;23.42;43.68;101225.84;5074642;28;20103;-81
2023/07/04 11:19:15;;;;;;;1.50;1.30;;;;;;;23.45;44.12;101209.78;5074594;28;20035;-90
2023/07/04 11:22:10;;;;;;;4.10;1.50;;;;;;;23.60;42.10;101223.84;5057431;28;20492;-88
2023/07/04 11:24:39;;;;;;;3.73;1.80;;;;;;;23.54;43.63;101229.53;5075088;28;20020;-91
2023/07/04 11:27:28;;;;;;;4.63;1.80;;;;;;;23.19;39.71;101214.97;5074956;28;20020;-89
2023/07/04 11:29:56;;;;;;;3.10;1.70;;;;;;;23.12;43.12;101218.88;5075033;28;20020;-88
2023/07/04 11:32:37;;;;;;;1.90;1.50;;;;;;;23.13;44.15;101213.50;5073941;28;20086;-89
2023/07/04 11:35:09;;;;;;;2.70;1.52;;;;;;;23.21;44.37;101213.03;5074860;28;20031;-89
2023/07/04 11:38:03;;;;;;;2.95;1.60;;;;;;;23.42;44.05;101215.25;5075449;28;20028;-88
2023/07/04 11:40:43;;;;;;;3.60;1.80;;;;;;;23.65;44.08;101220.88;5074206;28;20032;-89
2023/07/04 11:43:25;;;;;;;1.30;1.20;;;;;;;23.74;44.48;101218.50;5075121;28;20066;-90
2023/07/04 11:45:55;;;;;;;1.38;1.13;;;;;;;23.67;43.74;101221.63;5074896;28;20130;-90
2023/07/04 11:48:45;;;;;;;2.70;1.50;;;;;;;23.72;44.37;101227.50;5074646;28;20384;-90
2023/07/04 11:51:28;;;;;;;3.85;1.80;;;;;;;23.93;42.08;101224.38;5074863;28;20361;-87
2023/07/04 11:53:57;;;;;;;4.78;2.10;;;;;;;24.01;41.88;101224.75;5073974;28;20070;-88